Time;durP1;ratioP1;P1;durP2;ratioP2;P2;SDS_P1;SDS_P2;PMS_P1;PMS_P2;Temp;Humidity;BMP_temperature;BMP_pressure;BME280_temperature;BME280_humidity;BME280_pressure;Samples;Min_cycle;Max_cycle;Signal;HPM_P1;HPM_P2
2023/05/31 00:00:03;;;;;;;57.17;2.37;;;;;;;;;;5049721;28;20457;-69
2023/05/31 00:02:30;;;;;;;57.23;2.40;;;;;;;;;;5050461;28;20475;-69
2023/05/31 00:04:57;;;;;;;57.23;2.30;;;;;;;;;;5050388;28;20456;-69
2023/05/31 00:07:25;;;;;;;57.07;2.40;;;;;;;;;;5050611;28;20455;-69
2023/05/31 00:09:52;;;;;;;57.40;2.43;;;;;;;;;;5051606;28;20802;-69
2023/05/31 00:12:19;;;;;;;57.27;2.87;;;;;;;;;;5057946;28;20482;-69
2023/05/31 00:14:47;;;;;;;57.27;2.27;;;;;;;;;;5074446;28;20451;-70
2023/05/31 00:17:14;;;;;;;57.50;2.30;;;;;;;;;;5074436;28;20461;-70
2023/05/31 00:19:42;;;;;;;57.37;2.30;;;;;;;;;;5073689;28;20451;-70
2023/05/31 00:22:09;;;;;;;57.17;2.30;;;;;;;;;;5074177;28;20487;-70
2023/05/31 00:24:36;;;;;;;58.77;3.27;;;;;;;;;;5074372;28;20473;-70
2023/05/31 00:27:04;;;;;;;57.27;2.30;;;;;;;;;;5074186;28;20938;-70
2023/05/31 00:29:31;;;;;;;57.13;2.37;;;;;;;;;;5073696;28;20447;-70
2023/05/31 00:32:00;;;;;;;57.23;2.13;;;;;;;;;;5074401;28;20478;-70
2023/05/31 00:34:27;;;;;;;57.27;2.13;;;;;;;;;;5074260;28;20448;-70
2023/05/31 00:36:54;;;;;;;57.27;2.60;;;;;;;;;;5074593;28;20454;-69
2023/05/31 00:39:22;;;;;;;56.97;2.30;;;;;;;;;;5073518;28;20522;-69
2023/05/31 00:41:49;;;;;;;57.20;2.40;;;;;;;;;;5073912;28;20487;-70
2023/05/31 00:44:16;;;;;;;57.40;2.40;;;;;;;;;;5070902;28;20454;-70
2023/05/31 00:46:43;;;;;;;56.97;2.27;;;;;;;;;;5073651;28;20571;-70
2023/05/31 00:49:12;;;;;;;57.40;3.00;;;;;;;;;;5073206;28;20489;-70
2023/05/31 00:51:39;;;;;;;57.90;3.00;;;;;;;;;;5074049;28;20477;-70
2023/05/31 00:54:07;;;;;;;57.40;2.93;;;;;;;;;;5073784;28;20501;-70
2023/05/31 00:56:34;;;;;;;57.40;2.73;;;;;;;;;;5073963;28;20447;-70
2023/05/31 00:59:02;;;;;;;57.30;2.40;;;;;;;;;;5072832;28;20969;-70
2023/05/31 01:01:32;;;;;;;57.17;2.17;;;;;;;;;;5073553;28;20494;-69
2023/05/31 01:04:01;;;;;;;57.20;2.43;;;;;;;;;;5073860;28;20523;-69
2023/05/31 01:06:32;;;;;;;57.40;2.30;;;;;;;;;;5073780;28;20501;-70
2023/05/31 01:08:59;;;;;;;57.97;2.80;;;;;;;;;;5072752;28;20501;-70
2023/05/31 01:11:30;;;;;;;57.70;2.60;;;;;;;;;;5073343;28;20463;-70
2023/05/31 01:14:02;;;;;;;57.10;2.40;;;;;;;;;;5071662;28;20442;-70
2023/05/31 01:16:32;;;;;;;57.47;2.50;;;;;;;;;;5052951;28;20455;-71
2023/05/31 01:19:02;;;;;;;58.10;3.83;;;;;;;;;;5052753;28;20440;-71
2023/05/31 01:21:39;;;;;;;57.30;2.10;;;;;;;;;;5052281;28;21020;-70
2023/05/31 01:24:12;;;;;;;57.37;2.50;;;;;;;;;;5052977;28;20467;-70
2023/05/31 01:26:42;;;;;;;57.17;2.50;;;;;;;;;;5053084;28;20463;-69
2023/05/31 01:29:11;;;;;;;57.67;2.40;;;;;;;;;;5052539;28;20456;-69
2023/05/31 01:31:38;;;;;;;57.40;2.40;;;;;;;;;;5049037;28;20992;-69
2023/05/31 01:34:06;;;;;;;57.20;2.43;;;;;;;;;;5052882;28;20448;-69
2023/05/31 01:36:33;;;;;;;58.63;3.10;;;;;;;;;;5053207;28;20451;-72
2023/05/31 01:39:03;;;;;;;58.20;3.90;;;;;;;;;;5052137;28;20955;-72
2023/05/31 01:41:32;;;;;;;57.23;2.60;;;;;;;;;;5053005;28;20520;-72
2023/05/31 01:44:01;;;;;;;57.23;2.50;;;;;;;;;;5052754;28;20956;-72
2023/05/31 01:46:28;;;;;;;57.30;2.37;;;;;;;;;;5058964;28;20462;-72
2023/05/31 01:48:55;;;;;;;57.27;2.70;;;;;;;;;;5071933;28;20462;-72
2023/05/31 01:51:22;;;;;;;58.20;3.13;;;;;;;;;;5072814;28;20463;-72
2023/05/31 01:53:49;;;;;;;57.23;2.70;;;;;;;;;;5072733;28;20458;-70
2023/05/31 01:56:17;;;;;;;58.20;2.83;;;;;;;;;;5072642;28;20450;-70
2023/05/31 01:58:48;;;;;;;57.13;2.37;;;;;;;;;;5071560;28;20455;-70
2023/05/31 02:01:17;;;;;;;57.40;2.40;;;;;;;;;;5072589;28;20479;-70
2023/05/31 02:03:44;;;;;;;57.70;2.60;;;;;;;;;;5072365;28;20979;-70
2023/05/31 02:06:12;;;;;;;56.93;2.73;;;;;;;;;;5072555;28;20521;-70
2023/05/31 02:08:40;;;;;;;57.23;2.37;;;;;;;;;;5071478;28;20997;-69
2023/05/31 02:11:07;;;;;;;57.60;2.40;;;;;;;;;;5072186;28;20993;-70
2023/05/31 02:13:35;;;;;;;58.10;2.80;;;;;;;;;;5072059;28;20459;-70
2023/05/31 02:16:03;;;;;;;57.57;2.67;;;;;;;;;;5071435;28;20452;-69
2023/05/31 02:18:32;;;;;;;57.37;2.60;;;;;;;;;;5070648;28;20461;-69
2023/05/31 02:20:59;;;;;;;57.20;2.20;;;;;;;;;;5072347;28;20452;-69
2023/05/31 02:23:26;;;;;;;57.43;2.50;;;;;;;;;;5072101;28;20970;-70
2023/05/31 02:25:53;;;;;;;57.27;2.40;;;;;;;;;;5072130;28;20447;-70
2023/05/31 02:28:20;;;;;;;57.43;2.60;;;;;;;;;;5072379;28;20451;-70
2023/05/31 02:30:54;;;;;;;57.03;2.30;;;;;;;;;;5071697;28;20451;-69
2023/05/31 02:33:21;;;;;;;57.40;2.50;;;;;;;;;;5071274;28;20892;-70
2023/05/31 02:35:50;;;;;;;57.13;2.30;;;;;;;;;;5052375;28;20448;-70
2023/05/31 02:38:17;;;;;;;57.30;2.53;;;;;;;;;;5051845;28;20455;-70
2023/05/31 02:40:44;;;;;;;58.90;3.67;;;;;;;;;;5051595;28;20452;-70
2023/05/31 02:43:12;;;;;;;57.47;2.50;;;;;;;;;;5052053;28;20484;-70
2023/05/31 02:45:39;;;;;;;57.80;2.70;;;;;;;;;;5052096;28;20452;-70
2023/05/31 02:48:07;;;;;;;57.17;2.47;;;;;;;;;;5051819;28;20480;-70
2023/05/31 02:50:34;;;;;;;57.50;2.50;;;;;;;;;;5050756;28;20456;-69
2023/05/31 02:53:04;;;;;;;57.17;2.50;;;;;;;;;;5051491;28;20890;-69
2023/05/31 02:55:31;;;;;;;57.57;2.70;;;;;;;;;;5051950;28;20542;-69
2023/05/31 02:57:58;;;;;;;57.77;2.60;;;;;;;;;;5051800;28;20449;-70
2023/05/31 03:00:26;;;;;;;57.50;2.67;;;;;;;;;;5050992;28;20448;-70
2023/05/31 03:02:53;;;;;;;57.60;2.47;;;;;;;;;;5051486;28;20534;-69
2023/05/31 03:05:20;;;;;;;58.20;3.47;;;;;;;;;;5051962;28;20851;-70
2023/05/31 03:07:47;;;;;;;57.27;2.60;;;;;;;;;;5051401;28;20456;-70
2023/05/31 03:10:16;;;;;;;57.07;2.37;;;;;;;;;;5050849;28;20453;-70
2023/05/31 03:12:43;;;;;;;57.23;2.60;;;;;;;;;;5051485;28;20466;-69
2023/05/31 03:15:10;;;;;;;60.47;3.03;;;;;;;;;;5051585;28;20455;-70
2023/05/31 03:17:38;;;;;;;57.33;2.40;;;;;;;;;;5051336;28;20829;-69
2023/05/31 03:20:08;;;;;;;57.30;2.33;;;;;;;;;;5050230;28;20452;-70
2023/05/31 03:22:35;;;;;;;57.17;2.57;;;;;;;;;;5051299;28;20590;-70
2023/05/31 03:25:03;;;;;;;57.47;2.70;;;;;;;;;;5051195;28;20464;-70
2023/05/31 03:27:31;;;;;;;57.30;2.27;;;;;;;;;;5051288;28;20456;-70
2023/05/31 03:29:58;;;;;;;57.10;2.53;;;;;;;;;;5050299;28;20460;-70
2023/05/31 03:32:25;;;;;;;57.47;2.40;;;;;;;;;;5051291;28;20991;-70
2023/05/31 03:34:52;;;;;;;57.53;2.50;;;;;;;;;;5051409;28;20450;-69
2023/05/31 03:37:19;;;;;;;57.53;2.47;;;;;;;;;;5051016;28;20448;-70
2023/05/31 03:39:46;;;;;;;57.27;2.37;;;;;;;;;;5050503;28;20804;-70
2023/05/31 03:42:14;;;;;;;57.17;2.50;;;;;;;;;;5050937;28;20495;-70
2023/05/31 03:44:43;;;;;;;57.33;2.43;;;;;;;;;;5050624;28;20455;-70
2023/05/31 03:47:11;;;;;;;57.40;2.50;;;;;;;;;;5050808;28;20945;-69
2023/05/31 03:49:38;;;;;;;57.07;2.30;;;;;;;;;;5050487;28;20857;-69
2023/05/31 03:52:08;;;;;;;57.17;2.40;;;;;;;;;;5050992;28;20468;-70
2023/05/31 03:54:36;;;;;;;57.23;2.50;;;;;;;;;;5051370;28;20541;-70
2023/05/31 03:57:03;;;;;;;57.33;2.30;;;;;;;;;;5050932;28;20614;-70
2023/05/31 03:59:30;;;;;;;57.80;3.30;;;;;;;;;;5049924;28;20452;-70
2023/05/31 04:01:59;;;;;;;57.23;2.30;;;;;;;;;;5050936;28;20520;-70
2023/05/31 04:04:26;;;;;;;57.37;2.40;;;;;;;;;;5050786;28;20455;-70
2023/05/31 04:06:53;;;;;;;57.30;2.40;;;;;;;;;;5050983;28;20447;-69
2023/05/31 04:09:20;;;;;;;56.97;2.20;;;;;;;;;;5050731;28;20478;-70
2023/05/31 04:11:47;;;;;;;56.97;2.30;;;;;;;;;;5050779;28;20561;-70
2023/05/31 04:14:15;;;;;;;57.40;2.60;;;;;;;;;;5050840;28;20452;-69
2023/05/31 04:16:42;;;;;;;56.93;2.10;;;;;;;;;;5051184;28;20444;-72
2023/05/31 04:19:11;;;;;;;57.40;2.60;;;;;;;;;;5050184;28;20452;-72
2023/05/31 04:21:39;;;;;;;57.20;2.33;;;;;;;;;;5050843;28;20464;-72
2023/05/31 04:24:06;;;;;;;57.17;2.37;;;;;;;;;;5050824;28;20471;-72
2023/05/31 04:26:34;;;;;;;58.10;3.27;;;;;;;;;;5050587;28;20956;-72
2023/05/31 04:29:02;;;;;;;57.47;2.90;;;;;;;;;;5050000;28;20479;-72
2023/05/31 04:31:29;;;;;;;57.10;2.30;;;;;;;;;;5050902;28;20482;-72
2023/05/31 04:33:59;;;;;;;57.50;2.40;;;;;;;;;;5050613;28;20448;-72
2023/05/31 04:36:28;;;;;;;57.13;2.40;;;;;;;;;;5050542;28;20963;-72
2023/05/31 04:38:55;;;;;;;57.27;2.30;;;;;;;;;;5049714;28;20457;-72
2023/05/31 04:41:26;;;;;;;57.07;2.40;;;;;;;;;;5050292;28;20480;-72
2023/05/31 04:43:54;;;;;;;58.00;2.50;;;;;;;;;;5050700;28;20428;-72
2023/05/31 04:46:21;;;;;;;57.17;2.50;;;;;;;;;;5050486;28;20460;-72
2023/05/31 04:48:49;;;;;;;57.20;2.50;;;;;;;;;;5049916;28;20448;-71
2023/05/31 04:51:17;;;;;;;57.20;2.33;;;;;;;;;;5050823;28;20844;-72
2023/05/31 04:53:45;;;;;;;58.37;3.70;;;;;;;;;;5050249;28;20456;-72
2023/05/31 04:56:13;;;;;;;57.20;2.30;;;;;;;;;;5051130;28;20561;-72
2023/05/31 04:58:40;;;;;;;57.47;2.50;;;;;;;;;;5053643;28;20448;-72
2023/05/31 05:01:07;;;;;;;57.17;2.40;;;;;;;;;;5054291;28;20578;-71
2023/05/31 05:03:34;;;;;;;56.93;2.40;;;;;;;;;;5053758;28;20487;-72
2023/05/31 05:06:02;;;;;;;57.13;2.23;;;;;;;;;;5053763;28;20445;-72
2023/05/31 05:08:29;;;;;;;57.17;2.47;;;;;;;;;;5053461;28;20444;-72
2023/05/31 05:10:58;;;;;;;57.40;2.43;;;;;;;;;;5053521;28;20940;-72
2023/05/31 05:13:25;;;;;;;56.97;2.03;;;;;;;;;;5053819;28;20441;-72
2023/05/31 05:15:52;;;;;;;56.97;2.20;;;;;;;;;;5053579;28;20970;-72
2023/05/31 05:18:20;;;;;;;57.27;2.40;;;;;;;;;;5053934;28;20449;-72
2023/05/31 05:20:47;;;;;;;57.37;2.90;;;;;;;;;;5052769;28;20454;-69
2023/05/31 05:23:15;;;;;;;58.17;2.43;;;;;;;;;;5053399;28;20859;-71
2023/05/31 05:25:42;;;;;;;57.27;2.20;;;;;;;;;;5053530;28;20491;-71
2023/05/31 05:28:10;;;;;;;58.30;4.00;;;;;;;;;;5053693;28;20456;-71
2023/05/31 05:30:37;;;;;;;57.20;2.30;;;;;;;;;;5052753;28;20484;-71
2023/05/31 05:33:05;;;;;;;57.30;2.30;;;;;;;;;;5053636;28;20468;-71
2023/05/31 05:35:32;;;;;;;56.97;2.53;;;;;;;;;;5053303;28;20483;-71
2023/05/31 05:38:00;;;;;;;57.23;2.27;;;;;;;;;;5053515;28;20458;-71
2023/05/31 05:40:27;;;;;;;57.07;2.20;;;;;;;;;;5052726;28;20449;-71
2023/05/31 05:42:55;;;;;;;56.87;2.30;;;;;;;;;;5052852;28;20484;-71
2023/05/31 05:45:23;;;;;;;57.60;3.50;;;;;;;;;;5053419;28;20455;-71
2023/05/31 05:47:50;;;;;;;58.03;2.73;;;;;;;;;;5052909;28;20448;-71
2023/05/31 05:50:18;;;;;;;57.27;2.40;;;;;;;;;;5052250;28;20452;-71
2023/05/31 05:52:45;;;;;;;57.60;2.97;;;;;;;;;;5052599;28;20980;-71
2023/05/31 05:55:12;;;;;;;56.93;2.20;;;;;;;;;;5053210;28;20453;-71
2023/05/31 05:57:39;;;;;;;57.27;2.40;;;;;;;;;;5052904;28;20456;-71
2023/05/31 06:00:10;;;;;;;56.97;2.20;;;;;;;;;;5052009;28;20801;-71
2023/05/31 06:02:40;;;;;;;56.87;2.30;;;;;;;;;;5052530;28;20526;-71
2023/05/31 06:05:08;;;;;;;57.10;2.27;;;;;;;;;;5052882;28;20452;-71
2023/05/31 06:07:35;;;;;;;57.10;2.27;;;;;;;;;;5052432;28;20462;-71
2023/05/31 06:10:02;;;;;;;57.10;2.20;;;;;;;;;;5051906;28;20444;-71
2023/05/31 06:12:30;;;;;;;57.70;2.60;;;;;;;;;;5052412;28;20472;-71
2023/05/31 06:14:57;;;;;;;60.57;3.73;;;;;;;;;;5052571;28;20471;-71
2023/05/31 06:17:24;;;;;;;57.80;2.80;;;;;;;;;;5053015;28;20455;-71
2023/05/31 06:19:53;;;;;;;57.03;2.20;;;;;;;;;;5051733;28;20821;-71
2023/05/31 06:22:20;;;;;;;56.97;2.23;;;;;;;;;;5052203;28;20495;-71
2023/05/31 06:24:47;;;;;;;56.90;2.40;;;;;;;;;;5052229;28;20459;-71
2023/05/31 06:27:15;;;;;;;57.50;2.63;;;;;;;;;;5052109;28;20448;-71
2023/05/31 06:29:42;;;;;;;56.97;2.50;;;;;;;;;;5051360;28;20459;-71
2023/05/31 06:32:09;;;;;;;57.70;2.53;;;;;;;;;;5052334;28;20464;-71
2023/05/31 06:34:36;;;;;;;57.03;2.30;;;;;;;;;;5052056;28;20449;-71
2023/05/31 06:37:08;;;;;;;56.97;2.30;;;;;;;;;;5052396;28;20455;-71
2023/05/31 06:39:35;;;;;;;57.87;2.80;;;;;;;;;;5051408;28;20462;-71
2023/05/31 06:42:02;;;;;;;58.17;3.00;;;;;;;;;;5051707;28;20468;-71
2023/05/31 06:44:30;;;;;;;57.37;2.70;;;;;;;;;;5052273;28;20470;-68
2023/05/31 06:46:57;;;;;;;57.27;2.30;;;;;;;;;;5051754;28;20945;-68
2023/05/31 06:49:24;;;;;;;56.97;2.20;;;;;;;;;;5051088;28;20736;-68
2023/05/31 06:51:51;;;;;;;57.07;2.20;;;;;;;;;;5051688;28;20476;-69
2023/05/31 06:54:19;;;;;;;57.27;2.30;;;;;;;;;;5051939;28;20451;-71
2023/05/31 06:56:47;;;;;;;57.07;2.20;;;;;;;;;;5051872;28;20975;-71
2023/05/31 06:59:14;;;;;;;56.90;2.30;;;;;;;;;;5051004;28;20452;-69
2023/05/31 07:01:41;;;;;;;57.27;2.20;;;;;;;;;;5051840;28;20527;-71
2023/05/31 07:04:08;;;;;;;57.90;2.83;;;;;;;;;;5051740;28;20851;-71
2023/05/31 07:06:37;;;;;;;60.27;3.17;;;;;;;;;;5051673;28;20480;-71
2023/05/31 07:09:04;;;;;;;57.10;2.20;;;;;;;;;;5050808;28;20456;-70
2023/05/31 07:11:33;;;;;;;56.53;2.20;;;;;;;;;;5052031;28;20468;-71
2023/05/31 07:14:01;;;;;;;57.10;3.00;;;;;;;;;;5051643;28;20456;-71
2023/05/31 07:16:28;;;;;;;56.87;1.90;;;;;;;;;;5051708;28;20464;-69
2023/05/31 07:18:55;;;;;;;57.23;2.33;;;;;;;;;;5050179;28;20479;-70
2023/05/31 07:21:22;;;;;;;59.60;2.90;;;;;;;;;;5051627;28;20468;-69
2023/05/31 07:23:49;;;;;;;58.00;2.40;;;;;;;;;;5050874;28;20583;-70
2023/05/31 07:26:17;;;;;;;56.87;2.30;;;;;;;;;;5051358;28;20456;-70
2023/05/31 07:28:45;;;;;;;57.03;2.60;;;;;;;;;;5050603;28;20444;-70
2023/05/31 07:31:15;;;;;;;57.03;2.20;;;;;;;;;;5051191;28;20455;-70
2023/05/31 07:33:42;;;;;;;56.93;2.47;;;;;;;;;;5051120;28;20451;-70
2023/05/31 07:36:09;;;;;;;56.87;2.20;;;;;;;;;;5051230;28;20800;-70
2023/05/31 07:38:36;;;;;;;56.77;2.30;;;;;;;;;;5050277;28;20551;-70
2023/05/31 07:41:04;;;;;;;58.27;2.63;;;;;;;;;;5050830;28;20448;-70
2023/05/31 07:43:32;;;;;;;56.97;2.57;;;;;;;;;;5051396;28;20480;-70
2023/05/31 07:46:00;;;;;;;57.17;2.60;;;;;;;;;;5051323;28;20452;-70
2023/05/31 07:48:28;;;;;;;57.27;2.50;;;;;;;;;;5050807;28;20448;-70
2023/05/31 07:50:55;;;;;;;58.47;2.50;;;;;;;;;;5050374;28;20456;-70
2023/05/31 07:53:22;;;;;;;57.13;2.30;;;;;;;;;;5051319;28;20472;-70
2023/05/31 07:55:49;;;;;;;57.80;3.00;;;;;;;;;;5051282;28;20448;-70
2023/05/31 07:58:16;;;;;;;56.97;2.13;;;;;;;;;;5051247;28;20825;-71
2023/05/31 08:00:43;;;;;;;57.30;2.30;;;;;;;;;;5050569;28;20448;-70
2023/05/31 08:03:12;;;;;;;56.97;2.23;;;;;;;;;;5051052;28;20480;-70
2023/05/31 08:05:39;;;;;;;57.17;2.30;;;;;;;;;;5051033;28;20448;-71
2023/05/31 08:08:06;;;;;;;56.77;2.20;;;;;;;;;;5050977;28;20494;-71
2023/05/31 08:10:34;;;;;;;57.27;2.63;;;;;;;;;;5050378;28;20452;-71
2023/05/31 08:13:01;;;;;;;56.97;2.13;;;;;;;;;;5050761;28;20464;-70
2023/05/31 08:15:28;;;;;;;57.03;2.20;;;;;;;;;;5050807;28;20768;-70
2023/05/31 08:17:55;;;;;;;57.60;2.50;;;;;;;;;;5050514;28;20862;-70
2023/05/31 08:20:24;;;;;;;57.27;2.70;;;;;;;;;;5050335;28;20448;-71
2023/05/31 08:22:52;;;;;;;56.87;2.33;;;;;;;;;;5050666;28;20468;-71
2023/05/31 08:25:19;;;;;;;57.07;2.20;;;;;;;;;;5050594;28;20476;-70
2023/05/31 08:27:46;;;;;;;56.87;2.20;;;;;;;;;;5050702;28;20998;-70
2023/05/31 08:30:14;;;;;;;56.97;2.20;;;;;;;;;;5050638;28;20467;-71
2023/05/31 08:32:41;;;;;;;58.17;2.80;;;;;;;;;;5054211;28;20471;-71
2023/05/31 08:35:09;;;;;;;57.30;2.40;;;;;;;;;;5054324;28;20456;-71
2023/05/31 08:37:38;;;;;;;56.87;2.40;;;;;;;;;;5054399;28;20452;-71
2023/05/31 08:40:06;;;;;;;56.67;2.10;;;;;;;;;;5053492;28;20454;-71
2023/05/31 08:42:36;;;;;;;57.43;2.60;;;;;;;;;;5054094;28;20482;-71
2023/05/31 08:45:04;;;;;;;56.73;2.30;;;;;;;;;;5054028;28;20490;-71
2023/05/31 08:47:34;;;;;;;56.90;2.17;;;;;;;;;;5054565;28;20447;-70
2023/05/31 08:50:02;;;;;;;57.30;2.53;;;;;;;;;;5053450;28;20451;-70
2023/05/31 08:52:32;;;;;;;57.37;2.70;;;;;;;;;;5054353;28;20474;-71
2023/05/31 08:55:00;;;;;;;56.90;2.20;;;;;;;;;;5054436;28;20440;-70
2023/05/31 08:57:29;;;;;;;57.07;2.13;;;;;;;;;;5053830;28;20820;-71
2023/05/31 08:59:57;;;;;;;56.73;2.13;;;;;;;;;;5053015;28;20487;-71
2023/05/31 09:02:24;;;;;;;57.60;2.83;;;;;;;;;;5054062;28;20464;-70
2023/05/31 09:04:52;;;;;;;56.73;1.90;;;;;;;;;;5054065;28;20484;-70
2023/05/31 09:07:19;;;;;;;57.00;2.30;;;;;;;;;;5054223;28;20570;-70
2023/05/31 09:09:46;;;;;;;57.13;2.60;;;;;;;;;;5053089;28;20531;-70
2023/05/31 09:12:16;;;;;;;56.90;2.23;;;;;;;;;;5053600;28;20475;-70
2023/05/31 09:14:43;;;;;;;56.63;2.10;;;;;;;;;;5053887;28;20948;-71
2023/05/31 09:17:11;;;;;;;56.73;2.50;;;;;;;;;;5053867;28;20536;-71
2023/05/31 09:19:42;;;;;;;57.33;2.50;;;;;;;;;;5053223;28;20448;-71
2023/05/31 09:22:09;;;;;;;56.43;2.07;;;;;;;;;;5053382;28;20525;-70
2023/05/31 09:24:38;;;;;;;58.07;2.40;;;;;;;;;;5053098;28;20507;-69
2023/05/31 09:27:06;;;;;;;56.90;2.00;;;;;;;;;;5053728;28;20456;-69
2023/05/31 09:29:34;;;;;;;57.20;2.00;;;;;;;;;;5052637;28;20949;-68
2023/05/31 09:32:11;;;;;;;57.77;2.70;;;;;;;;;;5053495;28;20490;-69
2023/05/31 09:34:38;;;;;;;57.03;2.33;;;;;;;;;;5053237;28;20440;-69
2023/05/31 09:37:05;;;;;;;56.77;2.20;;;;;;;;;;5053427;28;20449;-69
2023/05/31 09:39:32;;;;;;;56.97;1.87;;;;;;;;;;5052380;28;20476;-69
2023/05/31 09:42:00;;;;;;;56.77;1.87;;;;;;;;;;5052960;28;20475;-69
2023/05/31 09:44:28;;;;;;;56.87;2.10;;;;;;;;;;5052944;28;20491;-68
2023/05/31 09:46:56;;;;;;;56.77;2.00;;;;;;;;;;5053168;28;20459;-69
2023/05/31 09:49:24;;;;;;;57.50;2.70;;;;;;;;;;5052468;28;20759;-69
2023/05/31 09:51:52;;;;;;;56.97;2.20;;;;;;;;;;5053107;28;20508;-70
2023/05/31 09:54:22;;;;;;;56.83;2.10;;;;;;;;;;5053010;28;20933;-70
2023/05/31 09:56:49;;;;;;;57.67;3.13;;;;;;;;;;5052928;28;20452;-70
2023/05/31 09:59:17;;;;;;;57.00;2.10;;;;;;;;;;5052279;28;20454;-70
2023/05/31 10:01:45;;;;;;;56.87;2.10;;;;;;;;;;5052801;28;20476;-70
2023/05/31 10:04:14;;;;;;;56.97;1.90;;;;;;;;;;5052864;28;20480;-70
2023/05/31 10:06:41;;;;;;;57.07;2.13;;;;;;;;;;5052732;28;20859;-71
2023/05/31 10:09:09;;;;;;;57.40;2.60;;;;;;;;;;5052148;28;20544;-71
2023/05/31 10:11:36;;;;;;;56.80;2.33;;;;;;;;;;5052954;28;20471;-71
2023/05/31 10:14:04;;;;;;;57.10;2.10;;;;;;;;;;5052502;28;20448;-71
2023/05/31 10:16:34;;;;;;;56.67;1.90;;;;;;;;;;5052595;28;20449;-71
2023/05/31 10:19:03;;;;;;;57.00;1.90;;;;;;;;;;5051634;28;20445;-71
2023/05/31 10:21:32;;;;;;;56.57;1.83;;;;;;;;;;5052837;28;20460;-71
2023/05/31 10:24:03;;;;;;;57.87;2.30;;;;;;;;;;5052130;28;20515;-68
2023/05/31 10:26:33;;;;;;;57.10;2.00;;;;;;;;;;5052741;28;20459;-68
2023/05/31 10:29:03;;;;;;;56.50;1.60;;;;;;;;;;5051899;28;20440;-70
2023/05/31 10:31:34;;;;;;;56.20;1.70;;;;;;;;;;5052244;28;20515;-70
2023/05/31 10:34:04;;;;;;;56.07;1.93;;;;;;;;;;5052211;28;20453;-69
2023/05/31 10:36:32;;;;;;;57.07;1.90;;;;;;;;;;5051920;28;20487;-70
2023/05/31 10:39:02;;;;;;;56.50;1.80;;;;;;;;;;5051269;28;20849;-70
2023/05/31 10:41:35;;;;;;;56.47;2.00;;;;;;;;;;5052013;28;20468;-70
2023/05/31 10:44:06;;;;;;;56.10;1.87;;;;;;;;;;5051998;28;20499;-70
2023/05/31 10:46:34;;;;;;;56.80;2.03;;;;;;;;;;5051850;28;20449;-70
2023/05/31 10:49:02;;;;;;;55.80;1.70;;;;;;;;;;5051241;28;20444;-70
2023/05/31 10:51:45;;;;;;;56.37;1.90;;;;;;;;;;5052076;28;20476;-70
2023/05/31 10:54:15;;;;;;;58.20;2.23;;;;;;;;;;5051228;28;20516;-70
2023/05/31 10:56:42;;;;;;;56.03;1.90;;;;;;;;;;5052137;28;20523;-70
2023/05/31 10:59:10;;;;;;;56.03;1.90;;;;;;;;;;5051125;28;20450;-70
2023/05/31 11:01:37;;;;;;;56.07;1.83;;;;;;;;;;5051839;28;20480;-70
2023/05/31 11:04:19;;;;;;;56.00;1.90;;;;;;;;;;5051881;28;20570;-71
2023/05/31 11:06:48;;;;;;;56.77;2.33;;;;;;;;;;5051499;28;20440;-70
2023/05/31 11:09:16;;;;;;;56.17;1.80;;;;;;;;;;5050916;28;20448;-70
2023/05/31 11:11:47;;;;;;;55.87;1.60;;;;;;;;;;5051419;28;20863;-70
2023/05/31 11:14:32;;;;;;;56.30;1.80;;;;;;;;;;5051588;28;20467;-71
2023/05/31 11:17:15;;;;;;;55.77;1.70;;;;;;;;;;5051223;28;20450;-71
2023/05/31 11:19:44;;;;;;;56.50;2.90;;;;;;;;;;5050505;28;20987;-70
2023/05/31 11:22:14;;;;;;;56.47;2.50;;;;;;;;;;5051574;28;20504;-71
2023/05/31 11:24:50;;;;;;;76.70;3.03;;;;;;;;;;5051175;28;20488;-71
2023/05/31 11:27:18;;;;;;;55.90;1.70;;;;;;;;;;5051103;28;20944;-71
2023/05/31 11:29:58;;;;;;;55.90;1.97;;;;;;;;;;5050250;28;20452;-71
2023/05/31 11:32:40;;;;;;;56.37;1.70;;;;;;;;;;5051173;28;20463;-71
2023/05/31 11:35:08;;;;;;;56.10;2.03;;;;;;;;;;5050702;28;20527;-69
2023/05/31 11:37:38;;;;;;;55.80;1.60;;;;;;;;;;5051502;28;20455;-70
2023/05/31 11:40:06;;;;;;;55.63;1.60;;;;;;;;;;5050313;28;20448;-69
2023/05/31 11:42:34;;;;;;;55.70;1.70;;;;;;;;;;5051270;28;20563;-69
2023/05/31 11:45:04;;;;;;;55.90;2.53;;;;;;;;;;5051183;28;20519;-69
2023/05/31 11:47:34;;;;;;;55.90;2.03;;;;;;;;;;5051093;28;20451;-70
2023/05/31 11:50:02;;;;;;;55.90;1.80;;;;;;;;;;5050850;28;20929;-70
2023/05/31 11:52:30;;;;;;;56.33;1.73;;;;;;;;;;5050771;28;20995;-70
2023/05/31 11:55:05;;;;;;;55.73;1.70;;;;;;;;;;5050744;28;20537;-70
2023/05/31 11:57:32;;;;;;;55.77;1.67;;;;;;;;;;5050937;28;20433;-70
2023/05/31 12:00:08;;;;;;;55.50;1.40;;;;;;;;;;5050155;28;20448;-71
2023/05/31 12:02:35;;;;;;;55.47;1.67;;;;;;;;;;5050763;28;20532;-70
2023/05/31 12:05:04;;;;;;;55.27;1.60;;;;;;;;;;5051035;28;20488;-71
2023/05/31 12:07:31;;;;;;;55.70;1.63;;;;;;;;;;5055233;28;20836;-71
2023/05/31 12:10:00;;;;;;;55.80;1.80;;;;;;;;;;5054336;28;20478;-71
2023/05/31 12:12:27;;;;;;;55.47;1.57;;;;;;;;;;5054939;28;20491;-71
2023/05/31 12:14:55;;;;;;;55.60;1.60;;;;;;;;;;5055226;28;20452;-71
2023/05/31 12:17:22;;;;;;;55.70;1.70;;;;;;;;;;5054893;28;20482;-71
2023/05/31 12:19:49;;;;;;;55.70;1.80;;;;;;;;;;5053997;28;20940;-71
2023/05/31 12:22:17;;;;;;;55.50;1.60;;;;;;;;;;5054702;28;20507;-71
2023/05/31 12:24:50;;;;;;;55.43;1.60;;;;;;;;;;5054536;28;20494;-71
2023/05/31 12:27:18;;;;;;;55.47;1.60;;;;;;;;;;5054958;28;20440;-71
2023/05/31 12:29:46;;;;;;;55.63;1.90;;;;;;;;;;5053626;28;20929;-71
2023/05/31 12:32:13;;;;;;;55.90;1.90;;;;;;;;;;5054273;28;20475;-71
2023/05/31 12:34:42;;;;;;;55.43;1.60;;;;;;;;;;5054788;28;20450;-71
2023/05/31 12:37:11;;;;;;;55.57;1.60;;;;;;;;;;5054611;28;20476;-71
2023/05/31 12:39:39;;;;;;;55.40;1.80;;;;;;;;;;5053541;28;20463;-70
2023/05/31 12:42:06;;;;;;;55.57;1.50;;;;;;;;;;5054188;28;20476;-71
2023/05/31 12:44:36;;;;;;;55.50;1.60;;;;;;;;;;5054037;28;20490;-71
2023/05/31 12:47:03;;;;;;;55.60;1.77;;;;;;;;;;5054369;28;20967;-71
2023/05/31 12:49:31;;;;;;;55.20;1.60;;;;;;;;;;5053576;28;20450;-72
2023/05/31 12:51:59;;;;;;;55.70;1.73;;;;;;;;;;5053904;28;20468;-71
2023/05/31 12:54:26;;;;;;;55.57;1.70;;;;;;;;;;5054204;28;20470;-71
2023/05/31 12:56:53;;;;;;;55.27;1.50;;;;;;;;;;5054023;28;20542;-71
2023/05/31 12:59:21;;;;;;;55.47;1.80;;;;;;;;;;5053373;28;20452;-71
2023/05/31 13:01:49;;;;;;;55.80;1.80;;;;;;;;;;5053965;28;20472;-71
2023/05/31 13:04:16;;;;;;;55.17;1.70;;;;;;;;;;5053744;28;20839;-71
2023/05/31 13:06:43;;;;;;;55.40;1.57;;;;;;;;;;5054084;28;20448;-71
2023/05/31 13:09:12;;;;;;;55.47;2.00;;;;;;;;;;5052930;28;20452;-71
2023/05/31 13:11:39;;;;;;;55.47;1.67;;;;;;;;;;5053360;28;20993;-71
2023/05/31 13:14:08;;;;;;;55.40;1.60;;;;;;;;;;5053575;28;20455;-71
2023/05/31 13:16:35;;;;;;;55.30;1.70;;;;;;;;;;5053111;28;20559;-71
2023/05/31 13:19:04;;;;;;;55.20;1.43;;;;;;;;;;5052533;28;20543;-71
2023/05/31 13:21:32;;;;;;;55.67;1.90;;;;;;;;;;5053888;28;20475;-71
2023/05/31 13:24:00;;;;;;;55.37;1.60;;;;;;;;;;5053498;28;20517;-71
2023/05/31 13:26:29;;;;;;;55.47;1.70;;;;;;;;;;5053266;28;21008;-71
2023/05/31 13:28:56;;;;;;;55.77;2.00;;;;;;;;;;5052527;28;20455;-71
2023/05/31 13:31:24;;;;;;;55.47;1.90;;;;;;;;;;5053537;28;20518;-71
2023/05/31 13:33:51;;;;;;;55.60;2.03;;;;;;;;;;5053271;28;20448;-71
2023/05/31 13:36:20;;;;;;;55.70;2.00;;;;;;;;;;5053179;28;20459;-71
2023/05/31 13:38:47;;;;;;;55.20;1.60;;;;;;;;;;5052203;28;20853;-71
2023/05/31 13:41:15;;;;;;;54.87;1.60;;;;;;;;;;5053247;28;20454;-71
2023/05/31 13:43:42;;;;;;;55.90;2.00;;;;;;;;;;5053134;28;20449;-71
2023/05/31 13:46:11;;;;;;;55.33;1.80;;;;;;;;;;5052980;28;20492;-70
2023/05/31 13:48:38;;;;;;;55.47;1.57;;;;;;;;;;5052187;28;20867;-70
2023/05/31 13:51:05;;;;;;;55.70;1.70;;;;;;;;;;5053228;28;20448;-70
2023/05/31 13:53:34;;;;;;;55.97;1.80;;;;;;;;;;5053201;28;20456;-70
2023/05/31 13:56:01;;;;;;;55.60;1.70;;;;;;;;;;5053340;28;20532;-70
2023/05/31 13:58:28;;;;;;;55.40;1.50;;;;;;;;;;5052773;28;20478;-70
2023/05/31 14:00:55;;;;;;;57.53;2.33;;;;;;;;;;5052409;28;20501;-71
2023/05/31 14:03:23;;;;;;;55.87;1.70;;;;;;;;;;5053049;28;20472;-71
2023/05/31 14:05:50;;;;;;;55.37;1.60;;;;;;;;;;5052541;28;20480;-71
2023/05/31 14:08:18;;;;;;;55.17;1.70;;;;;;;;;;5052860;28;20448;-71
2023/05/31 14:10:46;;;;;;;56.00;2.13;;;;;;;;;;5052280;28;20456;-71
2023/05/31 14:13:13;;;;;;;55.40;1.70;;;;;;;;;;5052758;28;20495;-71
2023/05/31 14:15:40;;;;;;;55.30;1.63;;;;;;;;;;5052488;28;20448;-71
2023/05/31 14:18:07;;;;;;;55.20;1.50;;;;;;;;;;5052722;28;20448;-71
2023/05/31 14:20:35;;;;;;;55.37;1.60;;;;;;;;;;5051974;28;20452;-71
2023/05/31 14:23:03;;;;;;;55.90;2.20;;;;;;;;;;5052163;28;21007;-71
2023/05/31 14:25:30;;;;;;;55.70;1.60;;;;;;;;;;5052699;28;20535;-71
2023/05/31 14:27:59;;;;;;;55.30;1.70;;;;;;;;;;5052174;28;20452;-71
2023/05/31 14:30:27;;;;;;;55.60;1.70;;;;;;;;;;5051474;28;20802;-71
2023/05/31 14:32:55;;;;;;;55.60;1.70;;;;;;;;;;5051981;28;20547;-71
2023/05/31 14:35:23;;;;;;;56.30;1.83;;;;;;;;;;5052485;28;20455;-71